sensor_id;sensor_type;location;lat;lon;timestamp;P1;durP1;ratioP1;P2;durP2;ratioP2
70433;SDS011;57876;47.792;12.960;2023-03-30T00:00:57;2.20;;;0.37;;
70433;SDS011;57876;47.792;12.960;2023-03-30T00:03:23;2.30;;;0.30;;
70433;SDS011;57876;47.792;12.960;2023-03-30T00:05:50;1.98;;;0.30;;
70433;SDS011;57876;47.792;12.960;2023-03-30T00:08:14;2.80;;;0.50;;
70433;SDS011;57876;47.792;12.960;2023-03-30T00:10:41;2.05;;;0.30;;
70433;SDS011;57876;47.792;12.960;2023-03-30T00:13:07;2.10;;;0.30;;
70433;SDS011;57876;47.792;12.960;2023-03-30T00:15:32;1.97;;;0.30;;
70433;SDS011;57876;47.792;12.960;2023-03-30T00:17:57;2.00;;;0.30;;
70433;SDS011;57876;47.792;12.960;2023-03-30T00:20:22;2.20;;;0.27;;
70433;SDS011;57876;47.792;12.960;2023-03-30T00:22:46;2.38;;;0.30;;
70433;SDS011;57876;47.792;12.960;2023-03-30T00:25:12;1.27;;;0.20;;
70433;SDS011;57876;47.792;12.960;2023-03-30T00:27:38;2.13;;;0.30;;
70433;SDS011;57876;47.792;12.960;2023-03-30T00:30:03;2.67;;;0.30;;
70433;SDS011;57876;47.792;12.960;2023-03-30T00:32:29;1.97;;;0.30;;
70433;SDS011;57876;47.792;12.960;2023-03-30T00:34:53;1.50;;;0.30;;
70433;SDS011;57876;47.792;12.960;2023-03-30T00:37:18;2.50;;;0.40;;
70433;SDS011;57876;47.792;12.960;2023-03-30T00:39:42;2.43;;;0.40;;
70433;SDS011;57876;47.792;12.960;2023-03-30T00:42:10;2.38;;;0.30;;
70433;SDS011;57876;47.792;12.960;2023-03-30T00:50:51;1.47;;;0.20;;
70433;SDS011;57876;47.792;12.960;2023-03-30T00:53:20;1.92;;;0.30;;
70433;SDS011;57876;47.792;12.960;2023-03-30T00:55:49;2.20;;;0.35;;
70433;SDS011;57876;47.792;12.960;2023-03-30T00:58:16;2.22;;;0.22;;
70433;SDS011;57876;47.792;12.960;2023-03-30T01:00:42;2.35;;;0.30;;
70433;SDS011;57876;47.792;12.960;2023-03-30T01:03:13;2.30;;;0.30;;
70433;SDS011;57876;47.792;12.960;2023-03-30T01:05:45;2.50;;;0.30;;
70433;SDS011;57876;47.792;12.960;2023-03-30T01:08:10;2.95;;;0.30;;
70433;SDS011;57876;47.792;12.960;2023-03-30T01:10:36;2.20;;;0.30;;
70433;SDS011;57876;47.792;12.960;2023-03-30T01:13:01;1.95;;;0.30;;
70433;SDS011;57876;47.792;12.960;2023-03-30T01:15:28;2.37;;;0.37;;
70433;SDS011;57876;47.792;12.960;2023-03-30T01:18:05;1.30;;;0.20;;
70433;SDS011;57876;47.792;12.960;2023-03-30T01:28:37;1.97;;;0.23;;
70433;SDS011;57876;47.792;12.960;2023-03-30T01:44:51;2.00;;;0.30;;
70433;SDS011;57876;47.792;12.960;2023-03-30T01:50:03;1.42;;;0.20;;
70433;SDS011;57876;47.792;12.960;2023-03-30T01:52:31;1.90;;;0.30;;
70433;SDS011;57876;47.792;12.960;2023-03-30T01:55:20;1.83;;;0.20;;
70433;SDS011;57876;47.792;12.960;2023-03-30T01:58:09;1.85;;;0.30;;
70433;SDS011;57876;47.792;12.960;2023-03-30T02:00:38;2.07;;;0.30;;
70433;SDS011;57876;47.792;12.960;2023-03-30T02:03:13;1.75;;;0.20;;
70433;SDS011;57876;47.792;12.960;2023-03-30T02:05:43;1.70;;;0.30;;
70433;SDS011;57876;47.792;12.960;2023-03-30T02:08:11;2.63;;;0.30;;
70433;SDS011;57876;47.792;12.960;2023-03-30T02:10:40;2.33;;;0.30;;
70433;SDS011;57876;47.792;12.960;2023-03-30T02:13:07;1.83;;;0.30;;
70433;SDS011;57876;47.792;12.960;2023-03-30T02:15:36;1.55;;;0.30;;
70433;SDS011;57876;47.792;12.960;2023-03-30T02:18:04;1.35;;;0.20;;
70433;SDS011;57876;47.792;12.960;2023-03-30T02:20:28;1.97;;;0.23;;
70433;SDS011;57876;47.792;12.960;2023-03-30T02:22:54;1.80;;;0.20;;
70433;SDS011;57876;47.792;12.960;2023-03-30T02:25:20;1.67;;;0.30;;
70433;SDS011;57876;47.792;12.960;2023-03-30T02:27:46;2.20;;;0.27;;
70433;SDS011;57876;47.792;12.960;2023-03-30T02:30:11;2.25;;;0.40;;
70433;SDS011;57876;47.792;12.960;2023-03-30T02:32:40;2.05;;;0.20;;
70433;SDS011;57876;47.792;12.960;2023-03-30T02:37:45;1.50;;;0.20;;
70433;SDS011;57876;47.792;12.960;2023-03-30T02:40:28;2.42;;;0.20;;
70433;SDS011;57876;47.792;12.960;2023-03-30T02:45:52;1.83;;;0.30;;
70433;SDS011;57876;47.792;12.960;2023-03-30T02:48:38;2.20;;;0.33;;
70433;SDS011;57876;47.792;12.960;2023-03-30T02:53:36;2.53;;;0.30;;
70433;SDS011;57876;47.792;12.960;2023-03-30T02:56:14;1.27;;;0.20;;
70433;SDS011;57876;47.792;12.960;2023-03-30T02:58:50;1.67;;;0.30;;
70433;SDS011;57876;47.792;12.960;2023-03-30T03:01:27;1.52;;;0.22;;
70433;SDS011;57876;47.792;12.960;2023-03-30T03:03:59;1.63;;;0.30;;
70433;SDS011;57876;47.792;12.960;2023-03-30T03:06:26;1.83;;;0.30;;
70433;SDS011;57876;47.792;12.960;2023-03-30T03:08:51;1.70;;;0.30;;
70433;SDS011;57876;47.792;12.960;2023-03-30T03:11:18;2.25;;;0.30;;
70433;SDS011;57876;47.792;12.960;2023-03-30T03:13:42;1.73;;;0.23;;
70433;SDS011;57876;47.792;12.960;2023-03-30T03:16:08;1.67;;;0.30;;
70433;SDS011;57876;47.792;12.960;2023-03-30T03:18:36;1.60;;;0.30;;
70433;SDS011;57876;47.792;12.960;2023-03-30T03:21:08;2.17;;;0.30;;
70433;SDS011;57876;47.792;12.960;2023-03-30T03:23:34;2.05;;;0.30;;
70433;SDS011;57876;47.792;12.960;2023-03-30T03:25:59;2.10;;;0.25;;
70433;SDS011;57876;47.792;12.960;2023-03-30T03:28:24;2.13;;;0.40;;
70433;SDS011;57876;47.792;12.960;2023-03-30T03:30:48;1.47;;;0.20;;
70433;SDS011;57876;47.792;12.960;2023-03-30T03:33:13;1.83;;;0.30;;
70433;SDS011;57876;47.792;12.960;2023-03-30T03:35:37;1.87;;;0.20;;
70433;SDS011;57876;47.792;12.960;2023-03-30T03:38:02;1.98;;;0.20;;
70433;SDS011;57876;47.792;12.960;2023-03-30T03:40:26;2.23;;;0.30;;
70433;SDS011;57876;47.792;12.960;2023-03-30T03:42:51;2.30;;;0.30;;
70433;SDS011;57876;47.792;12.960;2023-03-30T03:45:15;2.50;;;0.23;;
70433;SDS011;57876;47.792;12.960;2023-03-30T03:47:39;2.10;;;0.30;;
70433;SDS011;57876;47.792;12.960;2023-03-30T03:50:04;2.10;;;0.30;;
70433;SDS011;57876;47.792;12.960;2023-03-30T03:52:32;1.70;;;0.30;;
70433;SDS011;57876;47.792;12.960;2023-03-30T03:54:57;1.97;;;0.23;;
70433;SDS011;57876;47.792;12.960;2023-03-30T03:57:21;2.77;;;0.30;;
70433;SDS011;57876;47.792;12.960;2023-03-30T03:59:46;3.45;;;0.30;;
70433;SDS011;57876;47.792;12.960;2023-03-30T04:02:11;1.77;;;0.30;;
70433;SDS011;57876;47.792;12.960;2023-03-30T04:04:35;1.98;;;0.30;;
70433;SDS011;57876;47.792;12.960;2023-03-30T04:06:59;2.83;;;0.23;;
70433;SDS011;57876;47.792;12.960;2023-03-30T04:09:24;2.90;;;0.30;;
70433;SDS011;57876;47.792;12.960;2023-03-30T04:11:48;2.23;;;0.30;;
70433;SDS011;57876;47.792;12.960;2023-03-30T04:14:14;2.17;;;0.20;;
70433;SDS011;57876;47.792;12.960;2023-03-30T04:16:38;1.27;;;0.20;;
70433;SDS011;57876;47.792;12.960;2023-03-30T04:19:02;1.90;;;0.30;;
70433;SDS011;57876;47.792;12.960;2023-03-30T04:21:27;3.10;;;0.30;;
70433;SDS011;57876;47.792;12.960;2023-03-30T04:23:52;2.55;;;0.30;;
70433;SDS011;57876;47.792;12.960;2023-03-30T04:26:17;1.93;;;0.23;;
70433;SDS011;57876;47.792;12.960;2023-03-30T04:28:41;1.77;;;0.30;;
70433;SDS011;57876;47.792;12.960;2023-03-30T04:31:06;2.10;;;0.30;;
70433;SDS011;57876;47.792;12.960;2023-03-30T04:33:36;2.50;;;0.35;;
70433;SDS011;57876;47.792;12.960;2023-03-30T04:36:08;2.38;;;0.40;;
70433;SDS011;57876;47.792;12.960;2023-03-30T04:38:32;1.83;;;0.30;;
70433;SDS011;57876;47.792;12.960;2023-03-30T04:40:59;2.17;;;0.30;;
70433;SDS011;57876;47.792;12.960;2023-03-30T04:43:24;1.55;;;0.20;;
70433;SDS011;57876;47.792;12.960;2023-03-30T04:45:49;2.40;;;0.30;;
70433;SDS011;57876;47.792;12.960;2023-03-30T04:48:16;1.33;;;0.20;;
70433;SDS011;57876;47.792;12.960;2023-03-30T04:50:41;1.83;;;0.30;;
70433;SDS011;57876;47.792;12.960;2023-03-30T04:53:06;1.90;;;0.30;;
70433;SDS011;57876;47.792;12.960;2023-03-30T04:55:31;1.63;;;0.20;;
70433;SDS011;57876;47.792;12.960;2023-03-30T04:57:55;2.50;;;0.30;;
70433;SDS011;57876;47.792;12.960;2023-03-30T05:00:19;1.23;;;0.20;;
70433;SDS011;57876;47.792;12.960;2023-03-30T05:02:44;2.07;;;0.30;;
70433;SDS011;57876;47.792;12.960;2023-03-30T05:05:09;1.52;;;0.20;;
70433;SDS011;57876;47.792;12.960;2023-03-30T05:07:33;1.67;;;0.23;;
70433;SDS011;57876;47.792;12.960;2023-03-30T05:09:57;2.07;;;0.30;;
70433;SDS011;57876;47.792;12.960;2023-03-30T05:12:22;1.80;;;0.30;;
70433;SDS011;57876;47.792;12.960;2023-03-30T05:14:46;1.73;;;0.23;;
70433;SDS011;57876;47.792;12.960;2023-03-30T05:17:10;1.50;;;0.30;;
70433;SDS011;57876;47.792;12.960;2023-03-30T05:19:35;1.87;;;0.20;;
70433;SDS011;57876;47.792;12.960;2023-03-30T05:21:59;2.13;;;0.30;;
70433;SDS011;57876;47.792;12.960;2023-03-30T05:24:24;2.07;;;0.23;;
70433;SDS011;57876;47.792;12.960;2023-03-30T05:26:49;2.40;;;0.35;;
70433;SDS011;57876;47.792;12.960;2023-03-30T05:29:13;1.58;;;0.22;;
70433;SDS011;57876;47.792;12.960;2023-03-30T05:31:38;2.07;;;0.33;;
70433;SDS011;57876;47.792;12.960;2023-03-30T05:34:02;1.50;;;0.20;;
70433;SDS011;57876;47.792;12.960;2023-03-30T05:39:47;2.45;;;0.30;;
70433;SDS011;57876;47.792;12.960;2023-03-30T05:42:12;2.10;;;0.30;;
70433;SDS011;57876;47.792;12.960;2023-03-30T05:44:36;2.00;;;0.30;;
70433;SDS011;57876;47.792;12.960;2023-03-30T05:47:00;2.13;;;0.30;;
70433;SDS011;57876;47.792;12.960;2023-03-30T05:49:25;2.23;;;0.30;;
70433;SDS011;57876;47.792;12.960;2023-03-30T05:51:50;1.50;;;0.20;;
70433;SDS011;57876;47.792;12.960;2023-03-30T05:54:15;1.67;;;0.22;;
70433;SDS011;57876;47.792;12.960;2023-03-30T05:56:39;2.90;;;0.30;;
70433;SDS011;57876;47.792;12.960;2023-03-30T05:59:05;1.95;;;0.30;;
70433;SDS011;57876;47.792;12.960;2023-03-30T06:01:29;1.87;;;0.30;;
70433;SDS011;57876;47.792;12.960;2023-03-30T06:03:54;1.42;;;0.20;;
70433;SDS011;57876;47.792;12.960;2023-03-30T06:06:18;2.10;;;0.20;;
70433;SDS011;57876;47.792;12.960;2023-03-30T06:08:42;2.20;;;0.30;;
70433;SDS011;57876;47.792;12.960;2023-03-30T06:11:07;1.63;;;0.27;;
70433;SDS011;57876;47.792;12.960;2023-03-30T06:13:32;2.63;;;0.32;;
70433;SDS011;57876;47.792;12.960;2023-03-30T06:15:56;1.67;;;0.20;;
70433;SDS011;57876;47.792;12.960;2023-03-30T06:18:20;2.27;;;0.30;;
70433;SDS011;57876;47.792;12.960;2023-03-30T06:20:46;2.08;;;0.20;;
70433;SDS011;57876;47.792;12.960;2023-03-30T06:23:10;2.17;;;0.30;;
70433;SDS011;57876;47.792;12.960;2023-03-30T06:25:35;2.07;;;0.30;;
70433;SDS011;57876;47.792;12.960;2023-03-30T06:27:59;1.47;;;0.30;;
70433;SDS011;57876;47.792;12.960;2023-03-30T06:30:24;2.92;;;0.40;;
70433;SDS011;57876;47.792;12.960;2023-03-30T06:32:49;2.93;;;0.30;;
70433;SDS011;57876;47.792;12.960;2023-03-30T06:35:16;3.15;;;0.40;;
70433;SDS011;57876;47.792;12.960;2023-03-30T06:37:41;2.33;;;0.40;;
70433;SDS011;57876;47.792;12.960;2023-03-30T06:40:06;2.35;;;0.30;;
70433;SDS011;57876;47.792;12.960;2023-03-30T06:42:36;2.28;;;0.30;;
70433;SDS011;57876;47.792;12.960;2023-03-30T06:45:01;2.70;;;0.50;;
70433;SDS011;57876;47.792;12.960;2023-03-30T06:47:26;2.58;;;0.52;;
70433;SDS011;57876;47.792;12.960;2023-03-30T06:49:50;2.60;;;0.40;;
70433;SDS011;57876;47.792;12.960;2023-03-30T06:52:15;2.10;;;0.20;;
70433;SDS011;57876;47.792;12.960;2023-03-30T06:54:40;2.47;;;0.30;;
70433;SDS011;57876;47.792;12.960;2023-03-30T06:57:04;2.33;;;0.30;;
70433;SDS011;57876;47.792;12.960;2023-03-30T06:59:29;1.48;;;0.22;;
70433;SDS011;57876;47.792;12.960;2023-03-30T07:01:55;2.17;;;0.30;;
70433;SDS011;57876;47.792;12.960;2023-03-30T07:04:20;2.30;;;0.30;;
70433;SDS011;57876;47.792;12.960;2023-03-30T07:06:45;2.63;;;0.40;;
70433;SDS011;57876;47.792;12.960;2023-03-30T07:09:09;2.63;;;0.40;;
70433;SDS011;57876;47.792;12.960;2023-03-30T07:11:35;1.55;;;0.30;;
70433;SDS011;57876;47.792;12.960;2023-03-30T07:14:00;3.50;;;0.40;;
70433;SDS011;57876;47.792;12.960;2023-03-30T07:16:25;2.90;;;0.40;;
70433;SDS011;57876;47.792;12.960;2023-03-30T07:18:50;3.00;;;0.40;;
70433;SDS011;57876;47.792;12.960;2023-03-30T07:21:15;2.80;;;0.50;;
70433;SDS011;57876;47.792;12.960;2023-03-30T07:23:39;3.20;;;0.30;;
70433;SDS011;57876;47.792;12.960;2023-03-30T07:26:04;2.67;;;0.40;;
70433;SDS011;57876;47.792;12.960;2023-03-30T07:28:29;2.00;;;0.30;;
70433;SDS011;57876;47.792;12.960;2023-03-30T07:30:53;2.67;;;0.40;;
70433;SDS011;57876;47.792;12.960;2023-03-30T07:33:17;3.37;;;0.30;;
70433;SDS011;57876;47.792;12.960;2023-03-30T07:35:42;2.43;;;0.40;;
70433;SDS011;57876;47.792;12.960;2023-03-30T07:38:08;2.57;;;0.40;;
70433;SDS011;57876;47.792;12.960;2023-03-30T07:40:32;2.73;;;0.40;;
70433;SDS011;57876;47.792;12.960;2023-03-30T07:42:57;3.27;;;0.47;;
70433;SDS011;57876;47.792;12.960;2023-03-30T07:45:21;2.40;;;0.33;;
70433;SDS011;57876;47.792;12.960;2023-03-30T07:47:46;2.70;;;0.40;;
70433;SDS011;57876;47.792;12.960;2023-03-30T07:50:10;3.10;;;0.40;;
70433;SDS011;57876;47.792;12.960;2023-03-30T07:52:35;2.30;;;0.33;;
70433;SDS011;57876;47.792;12.960;2023-03-30T07:54:59;2.77;;;0.40;;
70433;SDS011;57876;47.792;12.960;2023-03-30T07:57:24;2.65;;;0.35;;
70433;SDS011;57876;47.792;12.960;2023-03-30T07:59:49;3.27;;;0.50;;
70433;SDS011;57876;47.792;12.960;2023-03-30T08:02:13;2.38;;;0.40;;
70433;SDS011;57876;47.792;12.960;2023-03-30T08:04:38;2.13;;;0.40;;
70433;SDS011;57876;47.792;12.960;2023-03-30T08:07:04;2.17;;;0.30;;
70433;SDS011;57876;47.792;12.960;2023-03-30T08:09:28;2.77;;;0.50;;
70433;SDS011;57876;47.792;12.960;2023-03-30T08:11:53;2.75;;;0.40;;
70433;SDS011;57876;47.792;12.960;2023-03-30T08:14:18;3.03;;;0.43;;
70433;SDS011;57876;47.792;12.960;2023-03-30T08:16:42;2.50;;;0.40;;
70433;SDS011;57876;47.792;12.960;2023-03-30T08:19:07;2.97;;;0.40;;
70433;SDS011;57876;47.792;12.960;2023-03-30T08:21:31;3.17;;;0.40;;
70433;SDS011;57876;47.792;12.960;2023-03-30T08:23:55;4.20;;;0.50;;
70433;SDS011;57876;47.792;12.960;2023-03-30T08:26:23;3.15;;;0.47;;
70433;SDS011;57876;47.792;12.960;2023-03-30T08:28:49;2.88;;;0.40;;
70433;SDS011;57876;47.792;12.960;2023-03-30T08:31:14;2.67;;;0.40;;
70433;SDS011;57876;47.792;12.960;2023-03-30T08:33:41;3.35;;;0.50;;
70433;SDS011;57876;47.792;12.960;2023-03-30T08:36:05;3.07;;;0.40;;
70433;SDS011;57876;47.792;12.960;2023-03-30T08:38:29;2.87;;;0.40;;
70433;SDS011;57876;47.792;12.960;2023-03-30T08:40:54;2.97;;;0.40;;
70433;SDS011;57876;47.792;12.960;2023-03-30T08:46:24;2.83;;;0.40;;
70433;SDS011;57876;47.792;12.960;2023-03-30T08:48:49;2.80;;;0.40;;
70433;SDS011;57876;47.792;12.960;2023-03-30T08:51:23;2.92;;;0.50;;
70433;SDS011;57876;47.792;12.960;2023-03-30T08:53:56;3.58;;;0.50;;
70433;SDS011;57876;47.792;12.960;2023-03-30T08:56:31;2.53;;;0.33;;
70433;SDS011;57876;47.792;12.960;2023-03-30T09:01:51;3.03;;;0.60;;
70433;SDS011;57876;47.792;12.960;2023-03-30T09:07:03;2.20;;;0.40;;
70433;SDS011;57876;47.792;12.960;2023-03-30T09:09:38;3.33;;;0.50;;
70433;SDS011;57876;47.792;12.960;2023-03-30T09:12:07;2.92;;;0.50;;
70433;SDS011;57876;47.792;12.960;2023-03-30T09:14:42;2.65;;;0.50;;
70433;SDS011;57876;47.792;12.960;2023-03-30T09:17:11;2.72;;;0.40;;
70433;SDS011;57876;47.792;12.960;2023-03-30T09:19:53;2.70;;;0.40;;
70433;SDS011;57876;47.792;12.960;2023-03-30T09:22:23;3.20;;;0.50;;
70433;SDS011;57876;47.792;12.960;2023-03-30T09:24:55;3.78;;;0.50;;
70433;SDS011;57876;47.792;12.960;2023-03-30T09:27:53;2.93;;;0.40;;
70433;SDS011;57876;47.792;12.960;2023-03-30T09:30:14;2.45;;;0.40;;
70433;SDS011;57876;47.792;12.960;2023-03-30T09:32:50;3.10;;;0.50;;
70433;SDS011;57876;47.792;12.960;2023-03-30T09:35:37;3.47;;;0.40;;
70433;SDS011;57876;47.792;12.960;2023-03-30T09:38:04;2.47;;;0.40;;
70433;SDS011;57876;47.792;12.960;2023-03-30T09:40:47;3.90;;;0.60;;
70433;SDS011;57876;47.792;12.960;2023-03-30T09:43:14;3.00;;;0.50;;
70433;SDS011;57876;47.792;12.960;2023-03-30T09:45:46;3.17;;;0.50;;
70433;SDS011;57876;47.792;12.960;2023-03-30T09:48:10;3.17;;;0.50;;
70433;SDS011;57876;47.792;12.960;2023-03-30T09:50:39;3.00;;;0.50;;
70433;SDS011;57876;47.792;12.960;2023-03-30T09:53:21;3.47;;;0.60;;
70433;SDS011;57876;47.792;12.960;2023-03-30T09:56:06;3.05;;;0.40;;
70433;SDS011;57876;47.792;12.960;2023-03-30T09:58:34;2.80;;;0.40;;
70433;SDS011;57876;47.792;12.960;2023-03-30T10:01:04;3.35;;;0.40;;
70433;SDS011;57876;47.792;12.960;2023-03-30T10:03:29;3.90;;;0.60;;
70433;SDS011;57876;47.792;12.960;2023-03-30T10:08:49;3.33;;;0.43;;
70433;SDS011;57876;47.792;12.960;2023-03-30T10:11:29;3.00;;;0.50;;
70433;SDS011;57876;47.792;12.960;2023-03-30T10:14:00;3.20;;;0.40;;
70433;SDS011;57876;47.792;12.960;2023-03-30T10:16:28;3.72;;;0.50;;
70433;SDS011;57876;47.792;12.960;2023-03-30T10:19:03;3.00;;;0.47;;
70433;SDS011;57876;47.792;12.960;2023-03-30T10:21:40;3.20;;;0.50;;
70433;SDS011;57876;47.792;12.960;2023-03-30T10:26:37;3.10;;;0.50;;
70433;SDS011;57876;47.792;12.960;2023-03-30T10:29:05;3.07;;;0.47;;
70433;SDS011;57876;47.792;12.960;2023-03-30T10:31:32;3.10;;;0.50;;
70433;SDS011;57876;47.792;12.960;2023-03-30T10:34:00;2.88;;;0.50;;
70433;SDS011;57876;47.792;12.960;2023-03-30T10:36:28;2.97;;;0.50;;
70433;SDS011;57876;47.792;12.960;2023-03-30T10:38:59;2.27;;;0.40;;
70433;SDS011;57876;47.792;12.960;2023-03-30T10:41:37;2.35;;;0.40;;
70433;SDS011;57876;47.792;12.960;2023-03-30T10:44:05;3.47;;;0.50;;
70433;SDS011;57876;47.792;12.960;2023-03-30T10:46:38;3.25;;;0.60;;
70433;SDS011;57876;47.792;12.960;2023-03-30T10:49:11;2.53;;;0.40;;
70433;SDS011;57876;47.792;12.960;2023-03-30T10:54:35;2.88;;;0.52;;
70433;SDS011;57876;47.792;12.960;2023-03-30T11:05:37;2.83;;;0.50;;
70433;SDS011;57876;47.792;12.960;2023-03-30T11:08:11;3.25;;;0.55;;
70433;SDS011;57876;47.792;12.960;2023-03-30T11:10:45;2.83;;;0.50;;
70433;SDS011;57876;47.792;12.960;2023-03-30T11:13:13;2.75;;;0.35;;
70433;SDS011;57876;47.792;12.960;2023-03-30T11:15:48;2.72;;;0.32;;
70433;SDS011;57876;47.792;12.960;2023-03-30T11:18:24;2.40;;;0.30;;
70433;SDS011;57876;47.792;12.960;2023-03-30T11:36:38;3.33;;;0.50;;
70433;SDS011;57876;47.792;12.960;2023-03-30T11:39:14;1.95;;;0.30;;
70433;SDS011;57876;47.792;12.960;2023-03-30T11:41:43;2.78;;;0.30;;
70433;SDS011;57876;47.792;12.960;2023-03-30T11:44:14;3.30;;;0.50;;
70433;SDS011;57876;47.792;12.960;2023-03-30T11:50:06;3.05;;;0.40;;
70433;SDS011;57876;47.792;12.960;2023-03-30T11:52:48;2.90;;;0.50;;
70433;SDS011;57876;47.792;12.960;2023-03-30T12:00:59;3.53;;;0.30;;
70433;SDS011;57876;47.792;12.960;2023-03-30T12:03:40;2.75;;;0.40;;
70433;SDS011;57876;47.792;12.960;2023-03-30T12:13:54;2.67;;;0.35;;
70433;SDS011;57876;47.792;12.960;2023-03-30T12:16:23;2.70;;;0.40;;
70433;SDS011;57876;47.792;12.960;2023-03-30T12:18:56;2.45;;;0.47;;
70433;SDS011;57876;47.792;12.960;2023-03-30T12:26:44;2.33;;;0.40;;
70433;SDS011;57876;47.792;12.960;2023-03-30T12:29:12;3.30;;;0.40;;
70433;SDS011;57876;47.792;12.960;2023-03-30T12:34:26;2.45;;;0.40;;
70433;SDS011;57876;47.792;12.960;2023-03-30T12:39:34;3.63;;;0.40;;
70433;SDS011;57876;47.792;12.960;2023-03-30T12:42:02;2.73;;;0.40;;
70433;SDS011;57876;47.792;12.960;2023-03-30T12:52:16;3.05;;;0.40;;
70433;SDS011;57876;47.792;12.960;2023-03-30T12:55:12;3.00;;;0.40;;
70433;SDS011;57876;47.792;12.960;2023-03-30T13:05:33;2.25;;;0.30;;
70433;SDS011;57876;47.792;12.960;2023-03-30T13:08:03;3.00;;;0.40;;
70433;SDS011;57876;47.792;12.960;2023-03-30T13:10:42;2.53;;;0.30;;
70433;SDS011;57876;47.792;12.960;2023-03-30T13:13:15;3.40;;;0.50;;
70433;SDS011;57876;47.792;12.960;2023-03-30T13:15:59;3.00;;;0.43;;
70433;SDS011;57876;47.792;12.960;2023-03-30T13:18:29;2.95;;;0.40;;
70433;SDS011;57876;47.792;12.960;2023-03-30T13:23:32;2.83;;;0.30;;
70433;SDS011;57876;47.792;12.960;2023-03-30T13:26:04;2.95;;;0.50;;
70433;SDS011;57876;47.792;12.960;2023-03-30T13:33:46;2.90;;;0.40;;
70433;SDS011;57876;47.792;12.960;2023-03-30T13:36:20;2.55;;;0.40;;
70433;SDS011;57876;47.792;12.960;2023-03-30T13:38:56;4.00;;;0.50;;
70433;SDS011;57876;47.792;12.960;2023-03-30T13:51:27;2.90;;;0.40;;
70433;SDS011;57876;47.792;12.960;2023-03-30T13:56:20;3.58;;;0.50;;
70433;SDS011;57876;47.792;12.960;2023-03-30T13:58:49;2.07;;;0.30;;
70433;SDS011;57876;47.792;12.960;2023-03-30T14:01:23;2.97;;;0.50;;
70433;SDS011;57876;47.792;12.960;2023-03-30T14:03:58;2.53;;;0.40;;
70433;SDS011;57876;47.792;12.960;2023-03-30T14:06:26;2.55;;;0.40;;
70433;SDS011;57876;47.792;12.960;2023-03-30T14:11:39;2.50;;;0.40;;
70433;SDS011;57876;47.792;12.960;2023-03-30T14:14:12;3.17;;;0.50;;
70433;SDS011;57876;47.792;12.960;2023-03-30T14:16:39;2.88;;;0.40;;
70433;SDS011;57876;47.792;12.960;2023-03-30T14:21:44;3.17;;;0.43;;
70433;SDS011;57876;47.792;12.960;2023-03-30T14:24:17;2.95;;;0.45;;
70433;SDS011;57876;47.792;12.960;2023-03-30T14:26:49;3.08;;;0.40;;
70433;SDS011;57876;47.792;12.960;2023-03-30T14:29:15;3.10;;;0.47;;
70433;SDS011;57876;47.792;12.960;2023-03-30T14:31:41;3.13;;;0.50;;
70433;SDS011;57876;47.792;12.960;2023-03-30T14:36:59;3.17;;;0.40;;
70433;SDS011;57876;47.792;12.960;2023-03-30T14:39:29;2.45;;;0.40;;
70433;SDS011;57876;47.792;12.960;2023-03-30T14:41:55;3.40;;;0.50;;
70433;SDS011;57876;47.792;12.960;2023-03-30T14:44:24;3.03;;;0.50;;
70433;SDS011;57876;47.792;12.960;2023-03-30T14:46:50;2.80;;;0.50;;
70433;SDS011;57876;47.792;12.960;2023-03-30T14:49:19;2.55;;;0.40;;
70433;SDS011;57876;47.792;12.960;2023-03-30T14:52:07;3.25;;;0.50;;
70433;SDS011;57876;47.792;12.960;2023-03-30T14:54:38;2.90;;;0.50;;
70433;SDS011;57876;47.792;12.960;2023-03-30T14:57:04;3.05;;;0.40;;
70433;SDS011;57876;47.792;12.960;2023-03-30T14:59:42;3.73;;;0.60;;
70433;SDS011;57876;47.792;12.960;2023-03-30T15:02:16;3.25;;;0.50;;
70433;SDS011;57876;47.792;12.960;2023-03-30T15:04:44;3.30;;;0.50;;
70433;SDS011;57876;47.792;12.960;2023-03-30T15:07:10;3.17;;;0.60;;
70433;SDS011;57876;47.792;12.960;2023-03-30T15:09:39;3.83;;;0.50;;
70433;SDS011;57876;47.792;12.960;2023-03-30T15:12:03;2.72;;;0.40;;
70433;SDS011;57876;47.792;12.960;2023-03-30T15:14:33;3.37;;;0.60;;
70433;SDS011;57876;47.792;12.960;2023-03-30T15:16:59;3.88;;;0.60;;
70433;SDS011;57876;47.792;12.960;2023-03-30T15:19:31;3.85;;;0.60;;
70433;SDS011;57876;47.792;12.960;2023-03-30T15:22:01;3.55;;;0.50;;
70433;SDS011;57876;47.792;12.960;2023-03-30T15:24:31;3.10;;;0.50;;
70433;SDS011;57876;47.792;12.960;2023-03-30T15:27:01;3.27;;;0.60;;
70433;SDS011;57876;47.792;12.960;2023-03-30T15:29:29;4.07;;;0.57;;
70433;SDS011;57876;47.792;12.960;2023-03-30T15:32:14;3.97;;;0.60;;
70433;SDS011;57876;47.792;12.960;2023-03-30T15:37:27;3.97;;;0.70;;
70433;SDS011;57876;47.792;12.960;2023-03-30T15:39:53;3.40;;;0.60;;
70433;SDS011;57876;47.792;12.960;2023-03-30T15:42:30;2.88;;;0.50;;
70433;SDS011;57876;47.792;12.960;2023-03-30T15:45:10;3.33;;;0.60;;
70433;SDS011;57876;47.792;12.960;2023-03-30T15:47:36;3.77;;;0.73;;
70433;SDS011;57876;47.792;12.960;2023-03-30T15:50:01;3.80;;;0.60;;
70433;SDS011;57876;47.792;12.960;2023-03-30T15:52:33;3.70;;;0.70;;
70433;SDS011;57876;47.792;12.960;2023-03-30T15:55:24;3.92;;;0.60;;
70433;SDS011;57876;47.792;12.960;2023-03-30T15:57:48;4.43;;;0.80;;
70433;SDS011;57876;47.792;12.960;2023-03-30T16:00:16;3.95;;;0.60;;
70433;SDS011;57876;47.792;12.960;2023-03-30T16:02:47;4.13;;;0.70;;
70433;SDS011;57876;47.792;12.960;2023-03-30T16:05:19;4.03;;;0.60;;
70433;SDS011;57876;47.792;12.960;2023-03-30T16:07:45;3.90;;;0.70;;
70433;SDS011;57876;47.792;12.960;2023-03-30T16:10:13;3.20;;;0.50;;
70433;SDS011;57876;47.792;12.960;2023-03-30T16:12:40;3.50;;;0.60;;
70433;SDS011;57876;47.792;12.960;2023-03-30T16:15:11;3.87;;;0.70;;
70433;SDS011;57876;47.792;12.960;2023-03-30T16:17:37;3.30;;;0.50;;
70433;SDS011;57876;47.792;12.960;2023-03-30T16:20:04;3.87;;;0.70;;
70433;SDS011;57876;47.792;12.960;2023-03-30T16:22:37;4.00;;;0.65;;
70433;SDS011;57876;47.792;12.960;2023-03-30T16:25:02;4.00;;;0.60;;
70433;SDS011;57876;47.792;12.960;2023-03-30T16:27:26;3.30;;;0.65;;
70433;SDS011;57876;47.792;12.960;2023-03-30T16:29:51;3.70;;;0.70;;
70433;SDS011;57876;47.792;12.960;2023-03-30T16:32:15;3.17;;;0.57;;
70433;SDS011;57876;47.792;12.960;2023-03-30T16:34:39;3.63;;;0.70;;
70433;SDS011;57876;47.792;12.960;2023-03-30T16:37:04;3.53;;;0.50;;
70433;SDS011;57876;47.792;12.960;2023-03-30T16:39:28;3.67;;;0.60;;
70433;SDS011;57876;47.792;12.960;2023-03-30T16:41:53;3.07;;;0.50;;
70433;SDS011;57876;47.792;12.960;2023-03-30T16:44:19;4.28;;;0.80;;
70433;SDS011;57876;47.792;12.960;2023-03-30T16:46:45;3.13;;;0.65;;
70433;SDS011;57876;47.792;12.960;2023-03-30T16:49:14;3.70;;;0.60;;
70433;SDS011;57876;47.792;12.960;2023-03-30T16:51:41;3.85;;;0.60;;
70433;SDS011;57876;47.792;12.960;2023-03-30T16:54:06;3.47;;;0.63;;
70433;SDS011;57876;47.792;12.960;2023-03-30T16:56:30;3.78;;;0.70;;
70433;SDS011;57876;47.792;12.960;2023-03-30T16:58:55;4.23;;;0.80;;
70433;SDS011;57876;47.792;12.960;2023-03-30T17:01:19;3.20;;;0.60;;
70433;SDS011;57876;47.792;12.960;2023-03-30T17:03:44;3.67;;;0.75;;
70433;SDS011;57876;47.792;12.960;2023-03-30T17:06:09;4.00;;;0.80;;
70433;SDS011;57876;47.792;12.960;2023-03-30T17:08:34;3.30;;;0.60;;
70433;SDS011;57876;47.792;12.960;2023-03-30T17:10:59;3.20;;;0.50;;
70433;SDS011;57876;47.792;12.960;2023-03-30T17:13:26;3.53;;;0.60;;
70433;SDS011;57876;47.792;12.960;2023-03-30T17:15:51;3.25;;;0.57;;